Morgan Park, Minnesota
Current Conditions -  °F | °C
As of 7:55 AM on Monday 20 Oct 2014 (Local Time) from KSUW Reporting Station
Scattered Clouds Scattered Clouds  
Wind Chill: 37°   Ceiling: Unl
Heat Index: 41°   Visibility: 10mi
Dew Point: 40°   Wind: 6mph
Humidity: 95%   Direction: 330°NNW
Pressure: 29.94"   Gusts: NA
Location:  46.6753°N, 92.2408°W
Report Text: KSUW 201255Z AUTO 33005KT 10SM SCT043 05/04 A2994 RMK AO2 T00510043
Loading
Personal Weather Stations






























Interactive Weather Map
Tropical Storm Tracking
New forecast layout! Learn more

10-Day Weather Forecast

Advertisements
Track Severe Weather on mobile